sensor_id;sensor_type;location;lat;lon;timestamp;P1;durP1;ratioP1;P2;durP2;ratioP2
75516;SDS011;64097;52.548;13.406;2022-12-29T06:01:42;1.33;;;1.23;;
75516;SDS011;64097;52.548;13.406;2022-12-29T06:04:08;1.98;;;1.33;;
75516;SDS011;64097;52.548;13.406;2022-12-29T06:06:34;1.50;;;1.25;;
75516;SDS011;64097;52.548;13.406;2022-12-29T06:09:00;1.48;;;1.30;;
75516;SDS011;64097;52.548;13.406;2022-12-29T06:11:25;1.92;;;1.40;;
75516;SDS011;64097;52.548;13.406;2022-12-29T06:13:51;1.77;;;1.27;;
75516;SDS011;64097;52.548;13.406;2022-12-29T06:16:17;1.50;;;1.27;;
75516;SDS011;64097;52.548;13.406;2022-12-29T06:18:42;1.70;;;1.30;;
75516;SDS011;64097;52.548;13.406;2022-12-29T06:21:08;1.73;;;1.20;;
75516;SDS011;64097;52.548;13.406;2022-12-29T06:23:34;2.50;;;1.40;;
75516;SDS011;64097;52.548;13.406;2022-12-29T06:25:59;1.30;;;1.20;;
75516;SDS011;64097;52.548;13.406;2022-12-29T06:28:25;1.55;;;1.30;;
75516;SDS011;64097;52.548;13.406;2022-12-29T06:30:51;1.50;;;1.30;;
75516;SDS011;64097;52.548;13.406;2022-12-29T06:33:16;2.10;;;1.10;;
75516;SDS011;64097;52.548;13.406;2022-12-29T06:35:42;1.42;;;1.20;;
75516;SDS011;64097;52.548;13.406;2022-12-29T06:38:10;1.17;;;1.08;;
75516;SDS011;64097;52.548;13.406;2022-12-29T06:40:36;1.38;;;1.05;;
75516;SDS011;64097;52.548;13.406;2022-12-29T06:43:02;1.85;;;1.20;;
75516;SDS011;64097;52.548;13.406;2022-12-29T06:45:28;1.55;;;1.10;;
75516;SDS011;64097;52.548;13.406;2022-12-29T06:47:53;1.50;;;1.10;;
75516;SDS011;64097;52.548;13.406;2022-12-29T06:50:19;1.80;;;1.35;;
75516;SDS011;64097;52.548;13.406;2022-12-29T06:52:45;1.45;;;1.10;;
75516;SDS011;64097;52.548;13.406;2022-12-29T06:55:10;1.45;;;1.10;;
75516;SDS011;64097;52.548;13.406;2022-12-29T06:57:36;2.25;;;1.02;;
75516;SDS011;64097;52.548;13.406;2022-12-29T07:00:03;1.65;;;0.98;;
75516;SDS011;64097;52.548;13.406;2022-12-29T07:02:30;1.15;;;1.00;;
75516;SDS011;64097;52.548;13.406;2022-12-29T07:04:55;1.23;;;0.90;;
75516;SDS011;64097;52.548;13.406;2022-12-29T07:07:21;1.30;;;0.93;;
75516;SDS011;64097;52.548;13.406;2022-12-29T07:09:47;1.65;;;1.20;;
75516;SDS011;64097;52.548;13.406;2022-12-29T07:12:12;1.15;;;1.02;;
75516;SDS011;64097;52.548;13.406;2022-12-29T07:14:38;1.20;;;1.10;;
75516;SDS011;64097;52.548;13.406;2022-12-29T07:17:04;1.70;;;1.15;;
75516;SDS011;64097;52.548;13.406;2022-12-29T07:19:31;1.45;;;1.23;;
75516;SDS011;64097;52.548;13.406;2022-12-29T07:21:57;1.75;;;1.15;;
75516;SDS011;64097;52.548;13.406;2022-12-29T07:24:23;1.50;;;1.20;;
75516;SDS011;64097;52.548;13.406;2022-12-29T07:26:51;2.25;;;1.00;;
75516;SDS011;64097;52.548;13.406;2022-12-29T07:29:17;1.40;;;1.02;;
75516;SDS011;64097;52.548;13.406;2022-12-29T07:31:43;1.33;;;1.23;;
75516;SDS011;64097;52.548;13.406;2022-12-29T07:34:09;1.15;;;1.00;;
75516;SDS011;64097;52.548;13.406;2022-12-29T07:36:35;1.25;;;1.15;;
75516;SDS011;64097;52.548;13.406;2022-12-29T07:39:00;1.38;;;1.20;;
75516;SDS011;64097;52.548;13.406;2022-12-29T07:41:27;1.50;;;1.23;;
75516;SDS011;64097;52.548;13.406;2022-12-29T07:43:52;1.15;;;1.00;;
75516;SDS011;64097;52.548;13.406;2022-12-29T07:46:18;1.50;;;1.10;;
75516;SDS011;64097;52.548;13.406;2022-12-29T07:48:44;1.20;;;1.10;;
75516;SDS011;64097;52.548;13.406;2022-12-29T07:51:10;1.17;;;1.00;;
75516;SDS011;64097;52.548;13.406;2022-12-29T07:53:36;1.38;;;1.17;;
75516;SDS011;64097;52.548;13.406;2022-12-29T07:56:02;1.15;;;0.90;;
75516;SDS011;64097;52.548;13.406;2022-12-29T07:58:28;1.17;;;1.00;;
75516;SDS011;64097;52.548;13.406;2022-12-29T08:00:54;1.75;;;1.15;;
75516;SDS011;64097;52.548;13.406;2022-12-29T08:03:20;1.38;;;1.00;;
75516;SDS011;64097;52.548;13.406;2022-12-29T08:05:46;2.53;;;1.30;;
75516;SDS011;64097;52.548;13.406;2022-12-29T08:08:12;1.08;;;0.98;;
75516;SDS011;64097;52.548;13.406;2022-12-29T08:10:37;1.80;;;1.00;;
75516;SDS011;64097;52.548;13.406;2022-12-29T08:13:03;1.00;;;0.90;;
75516;SDS011;64097;52.548;13.406;2022-12-29T08:15:29;1.38;;;0.88;;
75516;SDS011;64097;52.548;13.406;2022-12-29T08:17:54;1.67;;;1.10;;
75516;SDS011;64097;52.548;13.406;2022-12-29T08:20:20;1.40;;;0.90;;
75516;SDS011;64097;52.548;13.406;2022-12-29T08:22:46;1.55;;;1.10;;
75516;SDS011;64097;52.548;13.406;2022-12-29T08:25:11;1.02;;;0.98;;
75516;SDS011;64097;52.548;13.406;2022-12-29T08:27:37;1.20;;;1.10;;
75516;SDS011;64097;52.548;13.406;2022-12-29T08:30:03;1.45;;;1.17;;
75516;SDS011;64097;52.548;13.406;2022-12-29T08:32:29;0.90;;;0.90;;
75516;SDS011;64097;52.548;13.406;2022-12-29T08:34:55;1.90;;;1.00;;
75516;SDS011;64097;52.548;13.406;2022-12-29T08:37:20;1.98;;;1.10;;
75516;SDS011;64097;52.548;13.406;2022-12-29T08:39:47;1.20;;;1.10;;
75516;SDS011;64097;52.548;13.406;2022-12-29T08:42:12;1.73;;;1.15;;
75516;SDS011;64097;52.548;13.406;2022-12-29T08:44:38;1.23;;;1.02;;
75516;SDS011;64097;52.548;13.406;2022-12-29T08:47:04;2.05;;;1.20;;
75516;SDS011;64097;52.548;13.406;2022-12-29T08:49:30;1.75;;;1.20;;
75516;SDS011;64097;52.548;13.406;2022-12-29T08:51:58;1.55;;;1.10;;
75516;SDS011;64097;52.548;13.406;2022-12-29T08:54:24;1.60;;;1.10;;
75516;SDS011;64097;52.548;13.406;2022-12-29T08:56:50;1.02;;;0.93;;
75516;SDS011;64097;52.548;13.406;2022-12-29T08:59:15;1.45;;;1.00;;
75516;SDS011;64097;52.548;13.406;2022-12-29T09:01:41;1.60;;;1.10;;
75516;SDS011;64097;52.548;13.406;2022-12-29T09:04:07;1.77;;;1.20;;
75516;SDS011;64097;52.548;13.406;2022-12-29T09:06:33;1.27;;;0.90;;
75516;SDS011;64097;52.548;13.406;2022-12-29T09:08:59;1.83;;;1.25;;
75516;SDS011;64097;52.548;13.406;2022-12-29T09:11:24;1.77;;;1.20;;
75516;SDS011;64097;52.548;13.406;2022-12-29T09:13:50;1.73;;;1.10;;
75516;SDS011;64097;52.548;13.406;2022-12-29T09:16:17;1.25;;;1.00;;
75516;SDS011;64097;52.548;13.406;2022-12-29T09:18:45;2.03;;;1.15;;
75516;SDS011;64097;52.548;13.406;2022-12-29T09:21:12;2.42;;;1.38;;
75516;SDS011;64097;52.548;13.406;2022-12-29T09:23:38;2.70;;;1.17;;
75516;SDS011;64097;52.548;13.406;2022-12-29T09:26:04;1.40;;;0.93;;
75516;SDS011;64097;52.548;13.406;2022-12-29T09:28:31;1.88;;;0.90;;
75516;SDS011;64097;52.548;13.406;2022-12-29T09:30:57;1.58;;;1.00;;
75516;SDS011;64097;52.548;13.406;2022-12-29T09:33:23;1.33;;;1.20;;
75516;SDS011;64097;52.548;13.406;2022-12-29T09:35:50;1.58;;;1.00;;
75516;SDS011;64097;52.548;13.406;2022-12-29T09:38:18;2.00;;;1.10;;
75516;SDS011;64097;52.548;13.406;2022-12-29T09:40:45;1.45;;;0.98;;
75516;SDS011;64097;52.548;13.406;2022-12-29T09:46:27;2.58;;;1.20;;
75516;SDS011;64097;52.548;13.406;2022-12-29T09:49:13;1.35;;;1.00;;
75516;SDS011;64097;52.548;13.406;2022-12-29T09:51:49;2.08;;;1.10;;
75516;SDS011;64097;52.548;13.406;2022-12-29T09:54:23;1.58;;;1.08;;
75516;SDS011;64097;52.548;13.406;2022-12-29T09:56:53;1.30;;;0.90;;
75516;SDS011;64097;52.548;13.406;2022-12-29T09:59:20;3.30;;;1.20;;
75516;SDS011;64097;52.548;13.406;2022-12-29T10:02:04;2.15;;;1.00;;
75516;SDS011;64097;52.548;13.406;2022-12-29T10:11:07;1.45;;;1.10;;
75516;SDS011;64097;52.548;13.406;2022-12-29T10:27:47;2.22;;;1.20;;
75516;SDS011;64097;52.548;13.406;2022-12-29T10:30:14;3.13;;;1.27;;
75516;SDS011;64097;52.548;13.406;2022-12-29T10:35:20;1.60;;;1.13;;
75516;SDS011;64097;52.548;13.406;2022-12-29T10:41:13;1.60;;;1.00;;
75516;SDS011;64097;52.548;13.406;2022-12-29T10:43:54;1.67;;;1.20;;
75516;SDS011;64097;52.548;13.406;2022-12-29T10:48:52;2.10;;;1.00;;
75516;SDS011;64097;52.548;13.406;2022-12-29T10:53:51;2.72;;;0.93;;
75516;SDS011;64097;52.548;13.406;2022-12-29T10:58:58;1.17;;;0.80;;
75516;SDS011;64097;52.548;13.406;2022-12-29T11:01:39;1.08;;;0.90;;
75516;SDS011;64097;52.548;13.406;2022-12-29T11:06:58;1.45;;;1.30;;
75516;SDS011;64097;52.548;13.406;2022-12-29T11:09:29;1.00;;;0.90;;
75516;SDS011;64097;52.548;13.406;2022-12-29T11:11:57;2.42;;;1.10;;
75516;SDS011;64097;52.548;13.406;2022-12-29T11:14:27;1.92;;;1.00;;
75516;SDS011;64097;52.548;13.406;2022-12-29T11:17:02;1.20;;;0.93;;
75516;SDS011;64097;52.548;13.406;2022-12-29T11:19:30;2.53;;;0.80;;
75516;SDS011;64097;52.548;13.406;2022-12-29T11:24:45;1.50;;;0.93;;
75516;SDS011;64097;52.548;13.406;2022-12-29T11:27:16;1.50;;;1.00;;
75516;SDS011;64097;52.548;13.406;2022-12-29T11:29:48;1.60;;;1.00;;
75516;SDS011;64097;52.548;13.406;2022-12-29T11:32:22;1.02;;;0.77;;
75516;SDS011;64097;52.548;13.406;2022-12-29T11:34:51;1.38;;;0.88;;
75516;SDS011;64097;52.548;13.406;2022-12-29T11:37:18;2.10;;;0.90;;
75516;SDS011;64097;52.548;13.406;2022-12-29T11:39:58;1.75;;;0.90;;
75516;SDS011;64097;52.548;13.406;2022-12-29T11:42:40;1.88;;;0.82;;
75516;SDS011;64097;52.548;13.406;2022-12-29T11:45:19;0.70;;;0.70;;
75516;SDS011;64097;52.548;13.406;2022-12-29T11:47:56;1.60;;;0.93;;
75516;SDS011;64097;52.548;13.406;2022-12-29T11:50:27;0.93;;;0.80;;
75516;SDS011;64097;52.548;13.406;2022-12-29T11:53:39;1.77;;;1.20;;
75516;SDS011;64097;52.548;13.406;2022-12-29T11:55:53;1.38;;;0.88;;
75516;SDS011;64097;52.548;13.406;2022-12-29T11:58:29;2.15;;;0.80;;
75516;SDS011;64097;52.548;13.406;2022-12-29T12:00:57;0.90;;;0.70;;
75516;SDS011;64097;52.548;13.406;2022-12-29T12:03:30;0.95;;;0.68;;
75516;SDS011;64097;52.548;13.406;2022-12-29T12:05:58;1.25;;;0.68;;
75516;SDS011;64097;52.548;13.406;2022-12-29T12:11:18;0.77;;;0.60;;
75516;SDS011;64097;52.548;13.406;2022-12-29T12:14:00;1.00;;;0.55;;
75516;SDS011;64097;52.548;13.406;2022-12-29T12:25:12;1.05;;;0.60;;
75516;SDS011;64097;52.548;13.406;2022-12-29T12:28:02;0.80;;;0.50;;
75516;SDS011;64097;52.548;13.406;2022-12-29T12:30:52;0.47;;;0.30;;
75516;SDS011;64097;52.548;13.406;2022-12-29T12:33:29;0.35;;;0.35;;
75516;SDS011;64097;52.548;13.406;2022-12-29T13:00:33;1.25;;;0.50;;
75516;SDS011;64097;52.548;13.406;2022-12-29T13:08:49;1.42;;;0.40;;
75516;SDS011;64097;52.548;13.406;2022-12-29T13:17:04;0.68;;;0.55;;
75516;SDS011;64097;52.548;13.406;2022-12-29T13:22:36;0.73;;;0.52;;
75516;SDS011;64097;52.548;13.406;2022-12-29T13:28:11;1.10;;;0.50;;
75516;SDS011;64097;52.548;13.406;2022-12-29T13:30:53;0.60;;;0.60;;
75516;SDS011;64097;52.548;13.406;2022-12-29T13:33:39;0.77;;;0.60;;
75516;SDS011;64097;52.548;13.406;2022-12-29T13:39:40;1.23;;;0.77;;
75516;SDS011;64097;52.548;13.406;2022-12-29T13:42:10;0.98;;;0.70;;
75516;SDS011;64097;52.548;13.406;2022-12-29T13:44:45;1.67;;;0.80;;
75516;SDS011;64097;52.548;13.406;2022-12-29T13:50:01;1.30;;;0.80;;
75516;SDS011;64097;52.548;13.406;2022-12-29T13:55:23;0.77;;;0.70;;
